Main page
METAR-TAF:

METAR-TAF

Airports :

Aghajari, Iran

latitude: 30-46N, longitude: 049-40E, elevation: 29 m

Current weather observation

The report was made 15 minutes ago, at 05:00 UTC
Wind 2 kt from the Southeast
Temperature 13°C
Humidity 88%
Pressure 1021 hPa
Visibility: 3200 m
mist

METAR: OIAG 060500Z 13002KT 3200 BR NSC 13/11 Q1021

Time: 08:45 (05:15 UTC)


TAF: missing

Weather observations and forecasts of more than 4000 airports (METAR and TAF reports).

The available stations are represented by yellow and red dots on the map.

Hover mouse over dot to see the name of the station.

Then click to see weather observations and forecasts.

To change the map : click on the green buttons with a black cross to zoom in, on the green button with a dash to zoom out, or on the green arrows for adjacent maps.


METAR-TAF: